Time;durP1;ratioP1;P1;durP2;ratioP2;P2;SDS_P1;SDS_P2;PMS_P1;PMS_P2;Temp;Humidity;BMP_temperature;BMP_pressure;BME280_temperature;BME280_humidity;BME280_pressure;Samples;Min_cycle;Max_cycle;Signal;HPM_P1;HPM_P2
2023/12/22 00:02:07;;;;;;;20.60;10.17;;;;;;;2.61;100.00;63189.94;5071298;28;20266;-53
2023/12/22 00:04:33;;;;;;;19.23;10.80;;;;;;;2.90;100.00;63224.44;5053511;28;20231;-53
2023/12/22 00:06:59;;;;;;;18.33;10.23;;;;;;;2.90;100.00;63221.97;5071734;28;20283;-53
2023/12/22 00:09:24;;;;;;;19.07;10.87;;;;;;;2.89;100.00;63217.84;5071240;28;20243;-53
2023/12/22 00:11:50;;;;;;;21.67;11.17;;;;;;;2.74;100.00;63206.53;5053329;28;20293;-53
2023/12/22 00:14:15;;;;;;;18.83;10.80;;;;;;;2.75;100.00;63207.63;5071607;28;20198;-53
2023/12/22 00:16:41;;;;;;;22.30;11.10;;;;;;;2.66;100.00;63198.38;5071243;28;20581;-54
2023/12/22 00:19:06;;;;;;;18.03;9.83;;;;;;;2.53;100.00;63181.78;5071774;28;20568;-53
2023/12/22 00:21:32;;;;;;;20.33;10.47;;;;;;;2.49;100.00;63174.94;5053121;28;20283;-55
2023/12/22 00:23:58;;;;;;;21.57;10.90;;;;;;;2.38;100.00;63168.00;5071267;28;20220;-54
2023/12/22 00:26:23;;;;;;;18.27;10.57;;;;;;;2.41;100.00;63171.25;5071010;28;20197;-55
2023/12/22 00:28:49;;;;;;;17.37;10.40;;;;;;;2.58;100.00;63186.66;5053191;28;20201;-54
2023/12/22 00:31:15;;;;;;;17.53;9.97;;;;;;;2.44;100.00;63174.50;5070983;28;20190;-54
2023/12/22 00:33:40;;;;;;;19.07;9.57;;;;;;;2.80;100.00;63208.63;5070852;28;20714;-53
2023/12/22 00:36:06;;;;;;;14.40;9.30;;;;;;;2.73;100.00;63205.97;5070934;28;20259;-55
2023/12/22 00:38:32;;;;;;;15.90;8.97;;;;;;;2.73;100.00;63205.97;5071246;28;20682;-55
2023/12/22 00:40:57;;;;;;;20.80;10.27;;;;;;;2.89;100.00;63222.81;5070875;28;20343;-55
2023/12/22 00:43:23;;;;;;;16.90;9.17;;;;;;;2.74;100.00;63204.59;5070727;28;20220;-55
2023/12/22 00:45:49;;;;;;;16.13;9.07;;;;;;;2.81;100.00;63214.66;5070008;28;20207;-55
2023/12/22 00:48:15;;;;;;;19.93;9.63;;;;;;;3.03;100.00;63238.03;5036437;28;20219;-54
2023/12/22 00:50:41;;;;;;;17.87;8.93;;;;;;;2.98;100.00;63232.59;5052729;28;20206;-53
2023/12/22 00:53:07;;;;;;;16.40;9.30;;;;;;;2.79;100.00;63212.50;5069207;28;20584;-52
2023/12/22 00:55:32;;;;;;;20.47;9.17;;;;;;;2.99;100.00;63233.69;5070638;28;20241;-54
2023/12/22 00:57:58;;;;;;;15.63;9.00;;;;;;;2.76;100.00;63206.75;5052874;28;20207;-54
2023/12/22 01:00:23;;;;;;;14.10;8.60;;;;;;;2.41;100.00;63171.25;5070625;28;20188;-52
2023/12/22 01:02:49;;;;;;;13.93;8.50;;;;;;;2.70;100.00;63199.69;5070466;28;20214;-53
2023/12/22 01:05:14;;;;;;;16.10;8.67;;;;;;;2.78;100.00;63208.38;5070438;28;20189;-57
2023/12/22 01:07:40;;;;;;;16.10;8.63;;;;;;;2.83;100.00;63218.78;5070565;28;20209;-57
2023/12/22 01:10:06;;;;;;;15.17;8.00;;;;;;;2.28;100.00;63157.16;5070558;28;20182;-54
2023/12/22 01:12:32;;;;;;;16.23;9.07;;;;;;;2.85;100.00;63216.50;5070355;28;20269;-54
2023/12/22 01:14:58;;;;;;;14.87;8.57;;;;;;;3.10;100.00;63243.66;5070403;28;20197;-54
2023/12/22 01:17:24;;;;;;;15.13;8.70;;;;;;;3.12;100.00;63247.78;5070191;28;20208;-55
2023/12/22 01:19:51;;;;;;;14.23;8.17;;;;;;;2.99;100.00;63234.22;5070103;28;20228;-54
2023/12/22 01:22:16;;;;;;;13.20;8.10;;;;;;;3.11;100.00;63244.22;5070272;28;20686;-56
2023/12/22 01:24:45;;;;;;;17.20;9.10;;;;;;;3.19;100.00;63255.94;5070584;28;20297;-55
2023/12/22 01:27:11;;;;;;;20.93;9.13;;;;;;;2.96;100.00;63230.97;5070376;28;20201;-55
2023/12/22 01:29:36;;;;;;;16.93;8.53;;;;;;;3.27;100.00;63264.63;5070509;28;20192;-54
2023/12/22 01:32:02;;;;;;;19.00;9.17;;;;;;;3.07;100.00;63240.41;5070154;28;20204;-55
2023/12/22 01:34:28;;;;;;;15.73;8.60;;;;;;;3.28;100.00;63263.22;5070704;28;20191;-54
2023/12/22 01:36:53;;;;;;;14.93;9.20;;;;;;;2.84;100.00;63215.44;5070408;28;20677;-53
2023/12/22 01:39:19;;;;;;;13.73;9.00;;;;;;;2.97;100.00;63229.03;5070101;28;20208;-56
2023/12/22 01:41:45;;;;;;;15.30;9.27;;;;;;;2.92;100.00;63224.13;5069995;28;20691;-54
2023/12/22 01:44:10;;;;;;;14.37;8.53;;;;;;;2.84;100.00;63215.44;5070472;28;20681;-53
2023/12/22 01:46:36;;;;;;;16.30;8.83;;;;;;;2.83;100.00;63216.84;5069859;28;20177;-54
2023/12/22 01:49:02;;;;;;;16.77;9.13;;;;;;;2.86;100.00;63217.63;5070333;28;20687;-54
2023/12/22 01:51:32;;;;;;;14.77;9.17;;;;;;;2.99;100.00;63231.19;5069864;28;20194;-54
2023/12/22 01:53:58;;;;;;;15.03;9.17;;;;;;;3.12;100.00;63245.84;5070239;28;20174;-54
2023/12/22 01:56:24;;;;;;;17.90;10.87;;;;;;;2.92;100.00;63226.63;5070080;28;20191;-57
2023/12/22 01:58:57;;;;;;;15.63;9.17;;;;;;;2.70;100.00;63200.25;5055363;28;20727;-54
2023/12/22 02:01:23;;;;;;;16.03;8.80;;;;;;;3.11;100.00;63244.75;5073315;28;20201;-55
2023/12/22 02:03:52;;;;;;;18.00;9.53;;;;;;;3.07;100.00;63242.38;5073480;28;20273;-56
2023/12/22 02:06:18;;;;;;;15.17;8.83;;;;;;;3.33;100.00;63270.59;5073391;28;20192;-55
2023/12/22 02:08:46;;;;;;;16.97;8.77;;;;;;;3.36;100.00;63273.84;5055477;28;20209;-53
2023/12/22 02:11:12;;;;;;;13.43;8.73;;;;;;;3.30;100.00;63264.84;5073450;28;20183;-54
2023/12/22 02:13:38;;;;;;;16.97;9.93;;;;;;;3.31;100.00;63268.97;5073388;28;20220;-54
2023/12/22 02:16:41;;;;;;;16.10;8.63;;;;;;;3.00;100.00;63234.75;5073276;28;20669;-55
2023/12/22 02:19:31;;;;;;;14.00;8.23;;;;;;;3.38;100.00;63276.56;5073088;28;20228;-54
2023/12/22 02:22:03;;;;;;;16.77;9.17;;;;;;;3.07;100.00;63242.38;5073377;28;20208;-54
2023/12/22 02:24:30;;;;;;;13.60;8.57;;;;;;;3.23;100.00;63262.75;5072976;28;20213;-53
2023/12/22 02:27:07;;;;;;;14.87;8.87;;;;;;;3.17;100.00;63251.25;5072997;28;20218;-54
2023/12/22 02:29:40;;;;;;;13.30;8.93;;;;;;;3.28;100.00;63265.16;5073477;28;20297;-54
2023/12/22 02:32:14;;;;;;;14.87;9.03;;;;;;;3.14;100.00;63247.47;5072861;28;20240;-54
2023/12/22 02:34:42;;;;;;;15.20;9.13;;;;;;;3.14;100.00;63248.00;5072864;28;20228;-54
2023/12/22 02:37:11;;;;;;;18.93;9.73;;;;;;;2.98;100.00;63233.13;5072870;28;20205;-54
2023/12/22 02:39:36;;;;;;;17.87;10.50;;;;;;;2.92;100.00;63229.09;5073174;28;20216;-55
2023/12/22 02:42:05;;;;;;;13.93;9.67;;;;;;;2.90;100.00;63223.91;5072700;28;20292;-54
2023/12/22 02:44:32;;;;;;;14.23;9.27;;;;;;;3.09;100.00;63242.56;5054771;28;20216;-54
2023/12/22 02:46:57;;;;;;;15.77;9.80;;;;;;;3.38;100.00;63279.06;5072756;28;20212;-53
2023/12/22 02:49:30;;;;;;;18.13;9.93;;;;;;;3.41;100.00;63274.31;5073122;28;20197;-54
2023/12/22 02:51:55;;;;;;;20.83;10.30;;;;;;;3.49;100.00;63288.00;5072582;28;20227;-54
2023/12/22 02:54:21;;;;;;;15.60;9.57;;;;;;;3.37;100.00;63272.47;5073284;28;20210;-54
2023/12/22 02:56:47;;;;;;;23.37;9.90;;;;;;;3.72;100.00;63310.47;5072629;28;20253;-54
2023/12/22 02:59:12;;;;;;;15.63;9.03;;;;;;;3.77;100.00;63315.38;5054650;28;20198;-54
2023/12/22 03:01:38;;;;;;;16.73;9.40;;;;;;;3.71;100.00;63313.84;5072469;28;20241;-53
2023/12/22 03:04:03;;;;;;;17.70;9.80;;;;;;;3.70;100.00;63310.25;5072595;28;20219;-54
2023/12/22 03:06:29;;;;;;;19.17;9.83;;;;;;;3.62;100.00;63301.56;5072471;28;20205;-53
2023/12/22 03:08:55;;;;;;;19.47;10.17;;;;;;;3.62;100.00;63304.03;5071776;28;20283;-54
2023/12/22 03:11:20;;;;;;;15.43;9.63;;;;;;;3.62;100.00;63301.56;5072445;28;20212;-54
2023/12/22 03:13:46;;;;;;;18.50;9.53;;;;;;;3.93;100.00;63333.31;5072777;28;20198;-54
2023/12/22 03:16:11;;;;;;;17.97;10.60;;;;;;;3.91;100.00;63331.13;5072348;28;20177;-55
2023/12/22 03:18:39;;;;;;;19.47;12.13;;;;;;;3.77;100.00;63315.38;5072649;28;20204;-53
2023/12/22 03:21:05;;;;;;;27.90;13.50;;;;;;;3.66;100.00;63305.91;5054280;28;20181;-55
2023/12/22 03:23:31;;;;;;;23.17;12.77;;;;;;;3.21;100.00;63255.59;5072357;28;20284;-54
2023/12/22 03:25:56;;;;;;;25.40;13.40;;;;;;;2.92;100.00;63229.09;5054362;28;20190;-56
2023/12/22 03:28:22;;;;;;;21.77;12.20;;;;;;;2.80;100.00;63213.03;5072318;28;20200;-54
2023/12/22 03:30:47;;;;;;;25.07;12.37;;;;;;;2.90;100.00;63224.44;5072136;28;20189;-53
2023/12/22 03:33:13;;;;;;;19.87;10.80;;;;;;;2.80;100.00;63210.56;5053933;28;20221;-53
2023/12/22 03:35:38;;;;;;;20.03;11.57;;;;;;;2.64;100.00;63193.19;5071938;28;20200;-56
2023/12/22 03:38:05;;;;;;;19.33;11.20;;;;;;;2.60;100.00;63194.34;5072222;28;20212;-53
2023/12/22 03:40:30;;;;;;;24.00;11.70;;;;;;;2.60;100.00;63191.31;5071975;28;20216;-53
2023/12/22 03:42:56;;;;;;;20.63;11.37;;;;;;;2.50;100.00;63178.53;5071873;28;20251;-54
2023/12/22 03:45:21;;;;;;;17.83;10.20;;;;;;;2.48;100.00;63176.91;5071758;28;20192;-54
2023/12/22 03:47:47;;;;;;;18.77;10.03;;;;;;;2.63;100.00;63195.13;5071740;28;20605;-56
2023/12/22 03:50:12;;;;;;;17.37;10.50;;;;;;;2.98;100.00;63232.59;5071832;28;20554;-55
2023/12/22 03:52:38;;;;;;;19.73;10.80;;;;;;;3.22;100.00;63259.19;5053629;28;20278;-54
2023/12/22 03:55:04;;;;;;;19.53;10.23;;;;;;;3.04;100.00;63237.16;5053578;28;20183;-55
2023/12/22 03:57:30;;;;;;;16.50;9.63;;;;;;;3.10;100.00;63245.63;5053464;28;20213;-54
2023/12/22 03:59:56;;;;;;;17.93;10.20;;;;;;;3.22;100.00;63259.19;5071583;28;20654;-56
2023/12/22 04:02:22;;;;;;;20.27;10.60;;;;;;;3.18;100.00;63254.31;5071501;28;20243;-54
2023/12/22 04:04:47;;;;;;;19.13;11.13;;;;;;;3.17;100.00;63255.72;5071612;28;20304;-54
2023/12/22 04:07:13;;;;;;;18.87;10.70;;;;;;;3.44;100.00;63282.53;5053415;28;20639;-55
2023/12/22 04:09:38;;;;;;;17.03;10.33;;;;;;;3.34;100.00;63269.75;5071717;28;20715;-54
2023/12/22 04:12:05;;;;;;;18.57;9.77;;;;;;;3.58;100.00;63295.25;5071447;28;20715;-56
2023/12/22 04:14:31;;;;;;;24.07;10.43;;;;;;;3.69;100.00;63309.16;5071465;28;20197;-54
2023/12/22 04:16:57;;;;;;;16.97;10.23;;;;;;;3.52;100.00;63288.19;5070930;28;20710;-54
2023/12/22 04:19:22;;;;;;;16.10;9.13;;;;;;;3.48;100.00;63286.34;5071188;28;20209;-54
2023/12/22 04:21:48;;;;;;;16.10;9.63;;;;;;;3.48;100.00;63286.34;5070000;28;20623;-54
2023/12/22 04:24:14;;;;;;;18.70;9.27;;;;;;;3.61;100.00;63298.00;5071590;28;20221;-54
2023/12/22 04:26:39;;;;;;;15.00;9.33;;;;;;;3.67;100.00;63305.06;5053449;28;20209;-54
2023/12/22 04:29:05;;;;;;;19.03;9.53;;;;;;;3.62;100.00;63301.56;5071506;28;20564;-54
2023/12/22 04:31:30;;;;;;;16.57;10.23;;;;;;;3.58;100.00;63295.25;5071127;28;20269;-54
2023/12/22 04:33:56;;;;;;;18.00;10.10;;;;;;;3.64;100.00;63301.25;5053136;28;20615;-54
2023/12/22 04:36:21;;;;;;;18.37;10.70;;;;;;;4.00;100.00;63340.38;5070897;28;20188;-54
2023/12/22 04:38:47;;;;;;;17.67;9.20;;;;;;;3.95;100.00;63337.44;5052947;28;20279;-54
2023/12/22 04:41:13;;;;;;;15.50;9.47;;;;;;;3.90;100.00;63332.53;5053373;28;20274;-59
2023/12/22 04:43:38;;;;;;;18.83;10.20;;;;;;;3.99;100.00;63342.31;5071161;28;20219;-54
2023/12/22 04:46:04;;;;;;;13.33;8.43;;;;;;;3.93;100.00;63335.81;5071010;28;20193;-54
2023/12/22 04:48:32;;;;;;;17.77;10.00;;;;;;;3.82;100.00;63321.34;5052809;28;20310;-56
2023/12/22 04:50:58;;;;;;;19.73;10.00;;;;;;;3.93;100.00;63332.75;5052771;28;20252;-54
2023/12/22 04:53:24;;;;;;;17.70;9.47;;;;;;;3.88;100.00;63324.84;5069155;28;20662;-55
2023/12/22 04:55:49;;;;;;;17.60;10.27;;;;;;;4.10;100.00;63353.75;5070097;28;20184;-53
2023/12/22 04:58:15;;;;;;;18.27;9.83;;;;;;;3.99;100.00;63339.84;5070749;28;20238;-54
2023/12/22 05:00:40;;;;;;;15.33;8.80;;;;;;;4.06;100.00;63344.94;5070726;28;20195;-55
2023/12/22 05:03:06;;;;;;;19.20;9.37;;;;;;;4.06;100.00;63349.41;5070827;28;20256;-55
2023/12/22 05:05:32;;;;;;;15.27;8.57;;;;;;;3.96;100.00;63339.06;5070911;28;20219;-55
2023/12/22 05:07:57;;;;;;;16.80;9.37;;;;;;;4.07;100.00;63351.03;5070922;28;20227;-55
2023/12/22 05:10:23;;;;;;;13.53;8.90;;;;;;;4.00;100.00;63340.38;5070683;28;20187;-55
2023/12/22 05:12:49;;;;;;;15.73;9.40;;;;;;;4.06;100.00;63344.41;5070636;28;20224;-53
2023/12/22 05:15:14;;;;;;;17.17;9.30;;;;;;;3.94;100.00;63334.38;5070578;28;20193;-55
2023/12/22 05:17:40;;;;;;;15.13;8.50;;;;;;;4.06;100.00;63352.41;5070266;28;20607;-54
2023/12/22 05:20:07;;;;;;;11.93;7.97;;;;;;;4.21;100.00;63363.75;5070499;28;20184;-55
2023/12/22 05:22:39;;;;;;;16.97;8.97;;;;;;;3.98;100.00;63338.22;5070404;28;20708;-56
2023/12/22 05:25:05;;;;;;;14.27;9.17;;;;;;;4.28;100.00;63371.34;5052319;28;20254;-55
2023/12/22 05:27:32;;;;;;;12.30;8.97;;;;;;;4.26;100.00;63371.66;5069895;28;20204;-54
2023/12/22 05:30:01;;;;;;;15.13;8.60;;;;;;;4.06;100.00;63349.41;5068559;28;20189;-55
2023/12/22 05:32:27;;;;;;;17.23;9.03;;;;;;;4.11;100.00;63352.34;5036510;28;20585;-54
2023/12/22 05:34:53;;;;;;;14.30;8.37;;;;;;;4.10;100.00;63353.75;5055873;28;20199;-54
2023/12/22 05:37:18;;;;;;;17.90;8.60;;;;;;;3.98;100.00;63341.22;5073797;28;20207;-54
2023/12/22 05:39:45;;;;;;;19.20;9.03;;;;;;;4.01;100.00;63341.47;5073974;28;20195;-54
2023/12/22 05:42:11;;;;;;;16.57;8.43;;;;;;;3.91;100.00;63335.56;5073681;28;20226;-53
2023/12/22 05:44:38;;;;;;;15.77;8.70;;;;;;;4.08;100.00;63354.06;5074090;28;20587;-54
2023/12/22 05:47:04;;;;;;;18.33;9.63;;;;;;;4.05;100.00;63343.88;5073827;28;20351;-54
2023/12/22 05:49:30;;;;;;;12.60;8.77;;;;;;;3.93;100.00;63335.81;5073673;28;20189;-53
2023/12/22 05:51:56;;;;;;;16.13;9.87;;;;;;;4.00;100.00;63340.38;5073537;28;20704;-55
2023/12/22 05:54:21;;;;;;;15.20;8.87;;;;;;;3.92;100.00;63334.19;5073863;28;20185;-58
2023/12/22 05:56:48;;;;;;;15.80;9.77;;;;;;;3.78;100.00;63313.97;5073489;28;20697;-54
2023/12/22 05:59:13;;;;;;;13.90;9.00;;;;;;;3.92;100.00;63332.22;5055516;28;20274;-54
2023/12/22 06:01:39;;;;;;;15.30;8.83;;;;;;;4.04;100.00;63344.72;5073358;28;22365;-57
2023/12/22 06:04:05;;;;;;;14.53;8.77;;;;;;;4.23;100.00;63367.88;5073155;28;20219;-57
2023/12/22 06:06:32;;;;;;;18.77;8.80;;;;;;;4.20;100.00;63362.13;5055356;28;20203;-56
2023/12/22 06:08:57;;;;;;;17.43;10.37;;;;;;;4.08;100.00;63354.59;5073560;28;20245;-55
2023/12/22 06:11:23;;;;;;;15.27;9.57;;;;;;;4.17;100.00;63358.84;5055580;28;20628;-55
2023/12/22 06:13:49;;;;;;;14.37;9.47;;;;;;;3.98;100.00;63340.69;5073416;28;20189;-54
2023/12/22 06:16:15;;;;;;;16.43;9.30;;;;;;;3.96;100.00;63338.53;5073386;28;20212;-55
2023/12/22 06:18:41;;;;;;;17.20;9.83;;;;;;;4.05;100.00;63348.31;5055270;28;20243;-55
2023/12/22 06:21:08;;;;;;;15.37;9.73;;;;;;;4.13;100.00;63357.53;5073220;28;20276;-54
2023/12/22 06:23:34;;;;;;;16.67;9.60;;;;;;;4.01;100.00;63344.50;5073375;28;20226;-55
2023/12/22 06:26:02;;;;;;;19.17;9.83;;;;;;;4.03;100.00;63343.63;5055201;28;20658;-55
2023/12/22 06:28:27;;;;;;;17.50;10.33;;;;;;;3.94;100.00;63336.88;5072950;28;20209;-55
2023/12/22 06:30:54;;;;;;;15.47;9.33;;;;;;;4.28;100.00;63372.78;5072254;28;20196;-55
2023/12/22 06:33:19;;;;;;;20.73;10.30;;;;;;;4.35;100.00;63377.88;5072904;28;20700;-54
2023/12/22 06:35:45;;;;;;;23.10;10.30;;;;;;;4.42;100.00;63386.03;5073131;28;20230;-55
2023/12/22 06:38:11;;;;;;;18.13;10.07;;;;;;;4.34;100.00;63379.28;5054856;28;20212;-55
2023/12/22 06:40:38;;;;;;;16.40;10.63;;;;;;;4.33;100.00;63376.25;5072961;28;20195;-59
2023/12/22 06:43:04;;;;;;;19.43;11.03;;;;;;;4.34;100.00;63376.81;5072197;28;20227;-56
2023/12/22 06:45:30;;;;;;;17.53;11.50;;;;;;;4.39;100.00;63382.78;5054418;28;20199;-56
2023/12/22 06:47:55;;;;;;;20.97;11.07;;;;;;;4.10;100.00;63353.75;5072942;28;20294;-61
2023/12/22 06:50:21;;;;;;;17.43;11.07;;;;;;;4.22;100.00;63366.78;5072698;28;20192;-56
2023/12/22 06:52:46;;;;;;;18.83;10.57;;;;;;;4.46;100.00;63389.84;5054460;28;20252;-56
2023/12/22 06:55:12;;;;;;;20.60;11.40;;;;;;;4.50;100.00;63391.72;5072661;28;20185;-54
2023/12/22 06:57:37;;;;;;;17.00;11.17;;;;;;;4.47;100.00;63390.94;5054873;28;20281;-54
2023/12/22 07:00:04;;;;;;;21.67;11.87;;;;;;;4.45;100.00;63391.78;5054791;28;20618;-56
2023/12/22 07:02:30;;;;;;;17.00;10.40;;;;;;;4.47;100.00;63393.97;5072442;28;20204;-60
2023/12/22 07:05:23;;;;;;;20.73;11.13;;;;;;;4.61;100.00;63406.69;5072671;28;20562;-55
2023/12/22 07:07:50;;;;;;;17.97;10.30;;;;;;;4.47;100.00;63390.94;5054700;28;20216;-54
2023/12/22 07:10:16;;;;;;;17.77;10.73;;;;;;;4.51;100.00;63397.78;5072463;28;20785;-55
2023/12/22 07:12:42;;;;;;;20.30;11.50;;;;;;;4.60;100.00;63405.63;5072462;28;20285;-55
2023/12/22 07:15:07;;;;;;;21.63;11.13;;;;;;;4.42;100.00;63388.53;5072503;28;20188;-55
2023/12/22 07:17:34;;;;;;;14.77;9.43;;;;;;;4.40;100.00;63383.88;5072643;28;20200;-54
2023/12/22 07:19:59;;;;;;;15.37;9.33;;;;;;;4.41;100.00;63381.91;5037953;28;20219;-59
2023/12/22 07:22:25;;;;;;;18.60;8.60;;;;;;;4.50;100.00;63391.72;5072495;28;20244;-55
2023/12/22 07:24:52;;;;;;;18.50;8.93;;;;;;;4.43;100.00;63389.63;5072148;28;20218;-55
2023/12/22 07:27:18;;;;;;;15.53;9.10;;;;;;;4.51;100.00;63397.78;5055076;28;20213;-54
2023/12/22 07:29:43;;;;;;;20.87;9.67;;;;;;;4.68;100.00;63413.78;5054242;28;20271;-54
2023/12/22 07:32:09;;;;;;;15.40;9.23;;;;;;;4.70;100.00;63419.00;5072072;28;20651;-55
2023/12/22 07:34:35;;;;;;;14.90;9.47;;;;;;;4.59;100.00;63404.53;5054239;28;20676;-54
2023/12/22 07:37:01;;;;;;;18.20;10.17;;;;;;;4.63;100.00;63411.38;5072040;28;20287;-54
2023/12/22 07:39:26;;;;;;;14.43;8.93;;;;;;;4.84;100.00;63431.75;5072119;28;20284;-54
2023/12/22 07:41:52;;;;;;;16.60;9.00;;;;;;;4.82;100.00;63429.56;5053933;28;20213;-53
2023/12/22 07:44:18;;;;;;;14.57;8.93;;;;;;;4.80;100.00;63427.38;5072488;28;20219;-54
2023/12/22 07:46:43;;;;;;;16.07;9.37;;;;;;;4.87;100.00;63437.47;5053850;28;20216;-55
2023/12/22 07:49:09;;;;;;;15.73;9.03;;;;;;;5.01;100.00;63452.16;5072099;28;20189;-56
2023/12/22 07:51:35;;;;;;;18.50;9.37;;;;;;;5.05;100.00;63457.06;5071730;28;20199;-56
2023/12/22 07:54:01;;;;;;;19.33;9.57;;;;;;;4.87;100.00;63437.47;5072106;28;20192;-55
2023/12/22 07:56:26;;;;;;;17.40;10.60;;;;;;;4.84;100.00;63434.22;5071574;28;20191;-53
2023/12/22 07:58:53;;;;;;;23.03;9.50;;;;;;;4.89;100.00;63437.16;5071618;28;20192;-55
2023/12/22 08:01:18;;;;;;;14.17;9.80;;;;;;;4.87;100.00;63439.97;5071837;28;20245;-56
2023/12/22 08:03:44;;;;;;;17.47;10.17;;;;;;;4.77;100.00;63424.09;5071239;28;20223;-59
2023/12/22 08:06:10;;;;;;;16.87;9.20;;;;;;;4.72;100.00;63416.19;5071509;28;20693;-55
2023/12/22 08:08:36;;;;;;;17.30;8.80;;;;;;;5.10;100.00;63460.03;5071365;28;20230;-55
2023/12/22 08:11:02;;;;;;;15.00;9.10;;;;;;;5.28;100.00;63479.06;5071654;28;20235;-54
2023/12/22 08:13:27;;;;;;;21.37;8.77;;;;;;;5.33;100.00;63482.03;5071797;28;20648;-56
2023/12/22 08:15:53;;;;;;;16.93;9.10;;;;;;;5.07;100.00;63458.69;5071473;28;20188;-56
2023/12/22 08:18:19;;;;;;;16.70;8.53;;;;;;;5.18;100.00;63470.13;5053635;28;20243;-55
2023/12/22 08:20:44;;;;;;;12.73;8.07;;;;;;;5.18;100.00;63470.69;5071408;28;20295;-54
2023/12/22 08:23:12;;;;;;;14.63;8.70;;;;;;;4.48;100.00;63395.06;5053456;28;20265;-55
2023/12/22 08:25:38;;;;;;;13.73;9.43;;;;;;;4.52;100.00;63396.38;5071192;28;20187;-54
2023/12/22 08:28:05;;;;;;;14.47;8.30;;;;;;;4.84;100.00;63431.19;5071126;28;20217;-55
2023/12/22 08:30:31;;;;;;;15.30;8.60;;;;;;;4.24;100.00;63366.47;5071659;28;20215;-54
2023/12/22 08:32:57;;;;;;;13.00;8.60;;;;;;;4.94;100.00;63440.13;5070741;28;20228;-54
2023/12/22 08:35:22;;;;;;;13.77;9.20;;;;;;;4.94;100.00;63444.56;5071820;28;20187;-55
2023/12/22 08:37:49;;;;;;;12.57;8.23;;;;;;;4.83;100.00;63430.63;5036590;28;20567;-54
2023/12/22 08:40:14;;;;;;;15.80;8.50;;;;;;;4.97;100.00;63445.88;5053137;28;20249;-55
2023/12/22 08:42:40;;;;;;;15.53;9.33;;;;;;;5.12;100.00;63461.66;5070745;28;20212;-60
2023/12/22 08:45:06;;;;;;;16.20;8.17;;;;;;;5.23;100.00;63478.63;5052988;28;20240;-54
2023/12/22 08:47:31;;;;;;;13.97;8.20;;;;;;;5.23;100.00;63478.09;5070308;28;20212;-55
2023/12/22 08:49:57;;;;;;;18.53;9.60;;;;;;;5.38;100.00;63492.44;5070030;28;20177;-56
2023/12/22 08:52:22;;;;;;;15.20;9.37;;;;;;;5.65;100.00;63518.81;5070716;28;20208;-53
2023/12/22 08:54:48;;;;;;;14.73;9.43;;;;;;;5.68;100.00;63524.56;5053049;28;20200;-56
2023/12/22 08:57:13;;;;;;;17.10;9.20;;;;;;;5.59;100.00;63509.78;5071090;28;20205;-54
2023/12/22 08:59:39;;;;;;;13.60;8.33;;;;;;;5.67;100.00;63521.00;5053190;28;20193;-55
2023/12/22 09:02:06;;;;;;;14.30;8.90;;;;;;;5.59;100.00;63512.28;5070868;28;20208;-54
2023/12/22 09:04:32;;;;;;;17.40;8.80;;;;;;;5.58;100.00;63509.22;5053057;28;20205;-54
2023/12/22 09:06:57;;;;;;;15.67;9.20;;;;;;;5.68;100.00;63524.56;5070216;28;20212;-54
2023/12/22 09:09:24;;;;;;;15.23;8.90;;;;;;;5.64;100.00;63520.22;5070645;28;20572;-54
2023/12/22 09:11:50;;;;;;;12.63;8.20;;;;;;;5.63;100.00;63516.63;5036389;28;20215;-56
2023/12/22 09:14:15;;;;;;;15.07;8.80;;;;;;;6.00;100.00;63556.94;5069601;28;20196;-55
2023/12/22 09:16:44;;;;;;;17.37;9.70;;;;;;;6.31;100.00;63593.22;5070757;28;20258;-56
2023/12/22 09:19:09;;;;;;;14.13;9.20;;;;;;;6.46;100.00;63609.03;5071027;28;20667;-56
2023/12/22 09:21:35;;;;;;;13.27;8.70;;;;;;;6.50;100.00;63613.94;5070596;28;20234;-54
2023/12/22 09:24:01;;;;;;;15.77;10.27;;;;;;;6.54;100.00;63615.81;5052503;28;20221;-53
2023/12/22 09:26:27;;;;;;;17.00;9.90;;;;;;;6.50;100.00;63610.91;5070650;28;20188;-54
2023/12/22 09:28:55;;;;;;;21.23;12.00;;;;;;;6.60;100.00;63621.78;5069438;28;20654;-53
2023/12/22 09:31:22;;;;;;;25.40;12.87;;;;;;;6.40;100.00;63600.00;5070002;28;20647;-55
2023/12/22 09:33:48;;;;;;;20.33;11.87;;;;;;;6.39;100.00;63598.91;5070385;28;20231;-53
2023/12/22 09:36:14;;;;;;;23.43;12.53;;;;;;;6.46;100.00;63604.59;5070350;28;20271;-54
2023/12/22 09:38:41;;;;;;;22.03;12.33;;;;;;;6.28;100.00;63584.94;5070473;28;20331;-57
2023/12/22 09:41:07;;;;;;;20.77;10.80;;;;;;;5.96;100.00;63552.59;5070322;28;20192;-53
2023/12/22 09:43:36;;;;;;;19.60;11.30;;;;;;;5.75;100.00;63530.25;5070245;28;20219;-53
2023/12/22 09:46:03;;;;;;;23.00;12.13;;;;;;;5.64;100.00;63520.22;5070432;28;20195;-53
2023/12/22 09:48:31;;;;;;;23.20;11.20;;;;;;;5.54;100.00;63506.81;5070504;28;20666;-54
2023/12/22 09:50:58;;;;;;;24.40;12.83;;;;;;;5.53;100.00;63508.25;5070117;28;20228;-53
2023/12/22 09:53:26;;;;;;;22.80;12.70;;;;;;;5.44;100.00;63498.44;5069927;28;20219;-54
2023/12/22 09:55:53;;;;;;;24.50;12.70;;;;;;;5.68;100.00;63525.13;5070107;28;20249;-55
2023/12/22 09:58:19;;;;;;;31.00;14.20;;;;;;;5.64;100.00;63520.22;5052388;28;20235;-55
2023/12/22 10:00:45;;;;;;;28.57;13.07;;;;;;;5.70;100.00;63526.75;5070135;28;20199;-55
2023/12/22 10:03:12;;;;;;;19.17;11.30;;;;;;;6.00;100.00;63556.41;5069891;28;20205;-54
2023/12/22 10:05:40;;;;;;;23.70;14.20;;;;;;;6.01;100.00;63557.50;5070052;28;20184;-54
2023/12/22 10:08:06;;;;;;;24.77;13.00;;;;;;;5.75;100.00;63532.75;5069620;28;20583;-54
2023/12/22 10:10:32;;;;;;;27.53;14.07;;;;;;;5.85;100.00;63543.13;5069747;28;20181;-54
2023/12/22 10:12:59;;;;;;;19.00;13.10;;;;;;;5.73;100.00;63530.03;5069810;28;20239;-55
2023/12/22 10:15:26;;;;;;;23.97;12.63;;;;;;;5.79;100.00;63534.06;5069773;28;20695;-56
2023/12/22 10:17:53;;;;;;;25.47;13.00;;;;;;;5.79;100.00;63534.06;5069597;28;20292;-53
2023/12/22 10:20:19;;;;;;;28.40;13.97;;;;;;;5.98;100.00;63556.75;5038076;28;20173;-55
2023/12/22 10:22:45;;;;;;;23.90;12.77;;;;;;;5.95;100.00;63549.00;5073162;28;20690;-55
2023/12/22 10:25:10;;;;;;;19.93;12.07;;;;;;;6.01;100.00;63558.03;5072971;28;20208;-54
2023/12/22 10:27:36;;;;;;;22.30;12.57;;;;;;;6.05;100.00;63564.91;5072872;28;20208;-55
2023/12/22 10:30:03;;;;;;;20.10;12.23;;;;;;;6.18;100.00;63581.03;5073215;28;20594;-55
2023/12/22 10:32:29;;;;;;;21.57;12.90;;;;;;;5.99;100.00;63558.38;5072961;28;20750;-54
2023/12/22 10:34:57;;;;;;;22.63;12.03;;;;;;;6.33;100.00;63594.84;5072993;28;20291;-54
2023/12/22 10:37:23;;;;;;;25.30;14.57;;;;;;;6.08;100.00;63565.13;5072888;28;20247;-55
2023/12/22 10:39:52;;;;;;;29.10;13.13;;;;;;;5.98;100.00;63557.25;5072864;28;20193;-53
2023/12/22 10:42:18;;;;;;;24.27;13.77;;;;;;;6.69;100.00;63632.16;5072723;28;20291;-56
2023/12/22 10:44:45;;;;;;;22.63;15.10;;;;;;;6.67;100.00;63629.97;5073127;28;20303;-56
2023/12/22 10:47:11;;;;;;;23.20;14.33;;;;;;;6.97;100.00;63659.09;5072913;28;20212;-56
2023/12/22 10:49:36;;;;;;;21.27;14.50;;;;;;;7.36;100.00;63704.69;5073122;28;20246;-56
2023/12/22 10:52:02;;;;;;;24.50;13.90;;;;;;;7.65;100.00;63735.78;5072712;28;20213;-56
2023/12/22 10:54:30;;;;;;;23.93;12.77;;;;;;;7.76;100.00;63745.25;5072951;28;20196;-55
2023/12/22 10:57:02;;;;;;;23.77;12.10;;;;;;;8.00;100.00;63771.47;5072480;28;20208;-56
2023/12/22 10:59:32;;;;;;;20.17;12.10;;;;;;;8.30;100.00;63804.22;5072569;28;20189;-55
2023/12/22 11:01:58;;;;;;;24.27;11.87;;;;;;;8.58;100.00;63838.75;5072417;28;20679;-55
2023/12/22 11:04:30;;;;;;;22.70;13.90;;;;;;;8.95;100.00;63879.16;5072396;28;20216;-56
2023/12/22 11:06:59;;;;;;;22.93;12.33;;;;;;;9.26;100.00;63908.56;5054523;28;20243;-54
2023/12/22 11:09:31;;;;;;;16.73;10.10;;;;;;;9.29;100.00;63911.31;5073012;28;20189;-55
2023/12/22 11:11:58;;;;;;;16.27;10.80;;;;;;;8.58;100.00;63836.78;5072596;28;20197;-55
2023/12/22 11:14:26;;;;;;;16.80;11.90;;;;;;;9.00;100.00;63885.19;5072356;28;20654;-56
2023/12/22 11:16:53;;;;;;;21.37;12.03;;;;;;;8.62;100.00;63838.66;5072356;28;20219;-55
2023/12/22 11:19:20;;;;;;;19.37;11.23;;;;;;;9.35;100.00;63922.91;5072590;28;20763;-56